sensor_id;sensor_type;location;lat;lon;timestamp;P1;durP1;ratioP1;P2;durP2;ratioP2
17310;SDS011;8773;43.300;0.394;2023-04-08T00:02:03;3.63;;;3.33;;
17310;SDS011;8773;43.300;0.394;2023-04-08T00:04:32;2.90;;;2.80;;
17310;SDS011;8773;43.300;0.394;2023-04-08T00:07:00;3.50;;;3.20;;
17310;SDS011;8773;43.300;0.394;2023-04-08T00:09:28;3.73;;;3.40;;
17310;SDS011;8773;43.300;0.394;2023-04-08T00:11:56;6.07;;;3.57;;
17310;SDS011;8773;43.300;0.394;2023-04-08T00:14:25;4.13;;;3.60;;
17310;SDS011;8773;43.300;0.394;2023-04-08T00:16:53;3.47;;;3.27;;
17310;SDS011;8773;43.300;0.394;2023-04-08T00:19:21;5.07;;;3.87;;
17310;SDS011;8773;43.300;0.394;2023-04-08T00:21:50;3.90;;;3.67;;
17310;SDS011;8773;43.300;0.394;2023-04-08T00:24:19;4.60;;;4.10;;
17310;SDS011;8773;43.300;0.394;2023-04-08T00:26:46;4.20;;;4.00;;
17310;SDS011;8773;43.300;0.394;2023-04-08T00:29:14;4.43;;;4.07;;
17310;SDS011;8773;43.300;0.394;2023-04-08T00:31:44;4.47;;;4.10;;
17310;SDS011;8773;43.300;0.394;2023-04-08T00:34:13;4.57;;;4.10;;
17310;SDS011;8773;43.300;0.394;2023-04-08T00:36:41;4.40;;;4.00;;
17310;SDS011;8773;43.300;0.394;2023-04-08T00:39:08;5.03;;;4.63;;
17310;SDS011;8773;43.300;0.394;2023-04-08T00:41:36;5.07;;;4.73;;
17310;SDS011;8773;43.300;0.394;2023-04-08T00:44:05;5.40;;;5.00;;
17310;SDS011;8773;43.300;0.394;2023-04-08T00:46:34;4.63;;;4.40;;
17310;SDS011;8773;43.300;0.394;2023-04-08T00:49:06;4.93;;;4.63;;
17310;SDS011;8773;43.300;0.394;2023-04-08T00:51:35;5.20;;;4.80;;
17310;SDS011;8773;43.300;0.394;2023-04-08T00:54:03;5.70;;;5.07;;
17310;SDS011;8773;43.300;0.394;2023-04-08T00:56:31;5.33;;;5.00;;
17310;SDS011;8773;43.300;0.394;2023-04-08T00:59:01;5.53;;;5.13;;
17310;SDS011;8773;43.300;0.394;2023-04-08T01:01:31;5.27;;;4.97;;
17310;SDS011;8773;43.300;0.394;2023-04-08T01:04:08;5.87;;;5.30;;
17310;SDS011;8773;43.300;0.394;2023-04-08T01:06:46;6.00;;;5.50;;
17310;SDS011;8773;43.300;0.394;2023-04-08T01:09:18;5.63;;;5.30;;
17310;SDS011;8773;43.300;0.394;2023-04-08T01:11:50;6.20;;;5.60;;
17310;SDS011;8773;43.300;0.394;2023-04-08T01:14:20;5.47;;;5.10;;
17310;SDS011;8773;43.300;0.394;2023-04-08T01:16:53;6.17;;;5.57;;
17310;SDS011;8773;43.300;0.394;2023-04-08T01:19:26;5.47;;;5.00;;
17310;SDS011;8773;43.300;0.394;2023-04-08T01:21:58;5.53;;;5.03;;
17310;SDS011;8773;43.300;0.394;2023-04-08T01:24:32;5.70;;;5.20;;
17310;SDS011;8773;43.300;0.394;2023-04-08T01:27:07;5.87;;;5.27;;
17310;SDS011;8773;43.300;0.394;2023-04-08T01:29:36;5.77;;;5.33;;
17310;SDS011;8773;43.300;0.394;2023-04-08T01:32:05;6.50;;;5.93;;
17310;SDS011;8773;43.300;0.394;2023-04-08T01:34:36;5.60;;;5.13;;
17310;SDS011;8773;43.300;0.394;2023-04-08T01:37:06;6.00;;;5.60;;
17310;SDS011;8773;43.300;0.394;2023-04-08T01:39:35;5.77;;;5.37;;
17310;SDS011;8773;43.300;0.394;2023-04-08T01:42:05;5.77;;;5.27;;
17310;SDS011;8773;43.300;0.394;2023-04-08T01:44:34;5.67;;;5.27;;
17310;SDS011;8773;43.300;0.394;2023-04-08T01:47:03;5.07;;;4.77;;
17310;SDS011;8773;43.300;0.394;2023-04-08T01:49:31;5.70;;;5.23;;
17310;SDS011;8773;43.300;0.394;2023-04-08T01:52:00;5.13;;;4.77;;
17310;SDS011;8773;43.300;0.394;2023-04-08T01:54:29;6.57;;;5.23;;
17310;SDS011;8773;43.300;0.394;2023-04-08T01:56:57;5.77;;;5.30;;
17310;SDS011;8773;43.300;0.394;2023-04-08T01:59:28;5.57;;;5.00;;
17310;SDS011;8773;43.300;0.394;2023-04-08T02:02:01;5.53;;;5.23;;
17310;SDS011;8773;43.300;0.394;2023-04-08T02:04:32;4.87;;;4.67;;
17310;SDS011;8773;43.300;0.394;2023-04-08T02:07:01;5.27;;;4.97;;
17310;SDS011;8773;43.300;0.394;2023-04-08T02:09:29;5.23;;;4.90;;
17310;SDS011;8773;43.300;0.394;2023-04-08T02:11:57;5.90;;;5.47;;
17310;SDS011;8773;43.300;0.394;2023-04-08T02:14:25;5.33;;;4.93;;
17310;SDS011;8773;43.300;0.394;2023-04-08T02:16:55;5.93;;;5.43;;
17310;SDS011;8773;43.300;0.394;2023-04-08T02:19:34;5.17;;;4.67;;
17310;SDS011;8773;43.300;0.394;2023-04-08T02:22:08;4.87;;;4.57;;
17310;SDS011;8773;43.300;0.394;2023-04-08T02:24:43;4.93;;;4.63;;
17310;SDS011;8773;43.300;0.394;2023-04-08T02:27:12;4.97;;;4.57;;
17310;SDS011;8773;43.300;0.394;2023-04-08T02:29:41;5.03;;;4.63;;
17310;SDS011;8773;43.300;0.394;2023-04-08T02:32:10;4.50;;;4.20;;
17310;SDS011;8773;43.300;0.394;2023-04-08T02:34:39;4.70;;;4.47;;
17310;SDS011;8773;43.300;0.394;2023-04-08T02:37:08;4.33;;;4.13;;
17310;SDS011;8773;43.300;0.394;2023-04-08T02:39:36;4.50;;;4.30;;
17310;SDS011;8773;43.300;0.394;2023-04-08T02:42:04;6.33;;;4.80;;
17310;SDS011;8773;43.300;0.394;2023-04-08T02:44:33;9.20;;;4.87;;
17310;SDS011;8773;43.300;0.394;2023-04-08T02:47:01;4.80;;;4.50;;
17310;SDS011;8773;43.300;0.394;2023-04-08T02:49:31;4.83;;;4.43;;
17310;SDS011;8773;43.300;0.394;2023-04-08T02:51:59;5.13;;;4.67;;
17310;SDS011;8773;43.300;0.394;2023-04-08T02:54:27;4.87;;;4.57;;
17310;SDS011;8773;43.300;0.394;2023-04-08T02:56:55;5.23;;;4.60;;
17310;SDS011;8773;43.300;0.394;2023-04-08T02:59:23;4.40;;;4.20;;
17310;SDS011;8773;43.300;0.394;2023-04-08T03:01:51;4.77;;;4.40;;
17310;SDS011;8773;43.300;0.394;2023-04-08T03:04:19;4.97;;;4.57;;
17310;SDS011;8773;43.300;0.394;2023-04-08T03:06:49;5.07;;;4.67;;
17310;SDS011;8773;43.300;0.394;2023-04-08T03:09:17;4.60;;;4.40;;
17310;SDS011;8773;43.300;0.394;2023-04-08T03:11:45;5.47;;;4.87;;
17310;SDS011;8773;43.300;0.394;2023-04-08T03:14:19;5.50;;;5.03;;
17310;SDS011;8773;43.300;0.394;2023-04-08T03:16:47;5.00;;;4.60;;
17310;SDS011;8773;43.300;0.394;2023-04-08T03:19:15;4.43;;;4.20;;
17310;SDS011;8773;43.300;0.394;2023-04-08T03:21:43;4.93;;;4.43;;
17310;SDS011;8773;43.300;0.394;2023-04-08T03:24:12;4.50;;;4.30;;
17310;SDS011;8773;43.300;0.394;2023-04-08T03:26:40;5.90;;;4.97;;
17310;SDS011;8773;43.300;0.394;2023-04-08T03:29:08;4.80;;;4.50;;
17310;SDS011;8773;43.300;0.394;2023-04-08T03:31:37;4.63;;;4.33;;
17310;SDS011;8773;43.300;0.394;2023-04-08T03:34:05;4.50;;;4.10;;
17310;SDS011;8773;43.300;0.394;2023-04-08T03:36:33;5.20;;;4.37;;
17310;SDS011;8773;43.300;0.394;2023-04-08T03:39:01;4.37;;;4.17;;
17310;SDS011;8773;43.300;0.394;2023-04-08T03:41:30;6.47;;;4.20;;
17310;SDS011;8773;43.300;0.394;2023-04-08T03:43:58;4.67;;;3.93;;
17310;SDS011;8773;43.300;0.394;2023-04-08T03:46:26;4.07;;;3.87;;
17310;SDS011;8773;43.300;0.394;2023-04-08T03:48:54;4.10;;;3.90;;
17310;SDS011;8773;43.300;0.394;2023-04-08T03:51:22;4.63;;;4.23;;
17310;SDS011;8773;43.300;0.394;2023-04-08T03:53:50;4.30;;;4.07;;
17310;SDS011;8773;43.300;0.394;2023-04-08T03:56:18;4.63;;;4.33;;
17310;SDS011;8773;43.300;0.394;2023-04-08T03:58:48;4.30;;;3.97;;
17310;SDS011;8773;43.300;0.394;2023-04-08T04:01:16;4.90;;;4.47;;
17310;SDS011;8773;43.300;0.394;2023-04-08T04:03:44;4.30;;;4.00;;
17310;SDS011;8773;43.300;0.394;2023-04-08T04:06:13;3.97;;;3.70;;
17310;SDS011;8773;43.300;0.394;2023-04-08T04:08:41;4.53;;;4.20;;
17310;SDS011;8773;43.300;0.394;2023-04-08T04:11:09;4.37;;;4.00;;
17310;SDS011;8773;43.300;0.394;2023-04-08T04:13:37;4.33;;;4.03;;
17310;SDS011;8773;43.300;0.394;2023-04-08T04:16:06;4.43;;;4.17;;
17310;SDS011;8773;43.300;0.394;2023-04-08T04:18:34;3.93;;;3.73;;
17310;SDS011;8773;43.300;0.394;2023-04-08T04:21:04;4.20;;;3.80;;
17310;SDS011;8773;43.300;0.394;2023-04-08T04:23:33;3.87;;;3.67;;
17310;SDS011;8773;43.300;0.394;2023-04-08T04:26:01;4.27;;;3.87;;
17310;SDS011;8773;43.300;0.394;2023-04-08T04:28:29;4.27;;;3.97;;
17310;SDS011;8773;43.300;0.394;2023-04-08T04:30:56;4.43;;;4.13;;
17310;SDS011;8773;43.300;0.394;2023-04-08T04:33:25;4.70;;;4.30;;
17310;SDS011;8773;43.300;0.394;2023-04-08T04:35:53;4.57;;;4.17;;
17310;SDS011;8773;43.300;0.394;2023-04-08T04:38:21;4.77;;;4.37;;
17310;SDS011;8773;43.300;0.394;2023-04-08T04:40:49;4.60;;;4.40;;
17310;SDS011;8773;43.300;0.394;2023-04-08T04:43:17;4.70;;;4.30;;
17310;SDS011;8773;43.300;0.394;2023-04-08T04:45:44;4.63;;;4.30;;
17310;SDS011;8773;43.300;0.394;2023-04-08T04:48:12;4.37;;;4.07;;
17310;SDS011;8773;43.300;0.394;2023-04-08T04:50:42;4.10;;;3.90;;
17310;SDS011;8773;43.300;0.394;2023-04-08T04:53:09;4.97;;;4.47;;
17310;SDS011;8773;43.300;0.394;2023-04-08T04:55:37;4.40;;;4.17;;
17310;SDS011;8773;43.300;0.394;2023-04-08T04:58:05;4.70;;;4.40;;
17310;SDS011;8773;43.300;0.394;2023-04-08T05:00:33;4.33;;;4.10;;
17310;SDS011;8773;43.300;0.394;2023-04-08T05:03:01;4.10;;;3.83;;
17310;SDS011;8773;43.300;0.394;2023-04-08T05:05:29;4.70;;;4.40;;
17310;SDS011;8773;43.300;0.394;2023-04-08T05:07:58;4.70;;;4.27;;
17310;SDS011;8773;43.300;0.394;2023-04-08T05:10:26;4.30;;;3.90;;
17310;SDS011;8773;43.300;0.394;2023-04-08T05:12:54;4.10;;;3.80;;
17310;SDS011;8773;43.300;0.394;2023-04-08T05:15:22;4.50;;;4.10;;
17310;SDS011;8773;43.300;0.394;2023-04-08T05:17:50;4.43;;;4.13;;
17310;SDS011;8773;43.300;0.394;2023-04-08T05:20:18;4.67;;;4.10;;
17310;SDS011;8773;43.300;0.394;2023-04-08T05:22:46;4.37;;;4.00;;
17310;SDS011;8773;43.300;0.394;2023-04-08T05:25:17;4.23;;;3.93;;
17310;SDS011;8773;43.300;0.394;2023-04-08T05:27:46;4.23;;;3.83;;
17310;SDS011;8773;43.300;0.394;2023-04-08T05:30:14;4.03;;;3.80;;
17310;SDS011;8773;43.300;0.394;2023-04-08T05:32:42;4.47;;;4.07;;
17310;SDS011;8773;43.300;0.394;2023-04-08T05:35:10;4.00;;;3.80;;
17310;SDS011;8773;43.300;0.394;2023-04-08T05:37:38;4.50;;;4.20;;
17310;SDS011;8773;43.300;0.394;2023-04-08T05:40:06;4.20;;;4.00;;
17310;SDS011;8773;43.300;0.394;2023-04-08T05:42:36;4.93;;;4.53;;
17310;SDS011;8773;43.300;0.394;2023-04-08T05:45:04;4.30;;;4.00;;
17310;SDS011;8773;43.300;0.394;2023-04-08T05:47:33;4.30;;;4.00;;
17310;SDS011;8773;43.300;0.394;2023-04-08T05:50:02;4.40;;;4.00;;
17310;SDS011;8773;43.300;0.394;2023-04-08T05:52:30;4.27;;;3.97;;
17310;SDS011;8773;43.300;0.394;2023-04-08T05:54:59;4.40;;;4.00;;
17310;SDS011;8773;43.300;0.394;2023-04-08T05:57:27;3.67;;;3.43;;
17310;SDS011;8773;43.300;0.394;2023-04-08T05:59:56;3.50;;;3.30;;
17310;SDS011;8773;43.300;0.394;2023-04-08T06:02:24;4.23;;;3.93;;
17310;SDS011;8773;43.300;0.394;2023-04-08T06:04:53;3.90;;;3.60;;
17310;SDS011;8773;43.300;0.394;2023-04-08T06:07:21;4.00;;;3.80;;
17310;SDS011;8773;43.300;0.394;2023-04-08T06:09:49;4.23;;;3.37;;
17310;SDS011;8773;43.300;0.394;2023-04-08T06:12:17;3.90;;;3.70;;
17310;SDS011;8773;43.300;0.394;2023-04-08T06:14:45;3.87;;;3.50;;
17310;SDS011;8773;43.300;0.394;2023-04-08T06:17:14;3.40;;;3.20;;
17310;SDS011;8773;43.300;0.394;2023-04-08T06:19:42;3.37;;;3.17;;
17310;SDS011;8773;43.300;0.394;2023-04-08T06:22:10;3.53;;;3.33;;
17310;SDS011;8773;43.300;0.394;2023-04-08T06:24:38;3.60;;;3.40;;
17310;SDS011;8773;43.300;0.394;2023-04-08T06:27:06;3.30;;;2.90;;
17310;SDS011;8773;43.300;0.394;2023-04-08T06:29:34;3.43;;;3.23;;
17310;SDS011;8773;43.300;0.394;2023-04-08T06:32:02;3.57;;;3.37;;
17310;SDS011;8773;43.300;0.394;2023-04-08T06:34:35;3.90;;;3.50;;
17310;SDS011;8773;43.300;0.394;2023-04-08T06:37:03;2.57;;;2.47;;
17310;SDS011;8773;43.300;0.394;2023-04-08T06:39:31;2.53;;;2.33;;
17310;SDS011;8773;43.300;0.394;2023-04-08T06:42:00;2.80;;;2.60;;
17310;SDS011;8773;43.300;0.394;2023-04-08T06:44:27;2.80;;;2.60;;
17310;SDS011;8773;43.300;0.394;2023-04-08T06:46:56;2.70;;;2.50;;
17310;SDS011;8773;43.300;0.394;2023-04-08T06:49:24;2.60;;;2.40;;
17310;SDS011;8773;43.300;0.394;2023-04-08T06:51:54;2.93;;;2.73;;
17310;SDS011;8773;43.300;0.394;2023-04-08T06:54:22;2.67;;;2.47;;
17310;SDS011;8773;43.300;0.394;2023-04-08T06:56:50;2.60;;;2.40;;
17310;SDS011;8773;43.300;0.394;2023-04-08T06:59:18;2.67;;;2.47;;
17310;SDS011;8773;43.300;0.394;2023-04-08T07:01:46;2.60;;;2.40;;
17310;SDS011;8773;43.300;0.394;2023-04-08T07:04:14;2.40;;;2.30;;
17310;SDS011;8773;43.300;0.394;2023-04-08T07:06:42;2.10;;;2.00;;
17310;SDS011;8773;43.300;0.394;2023-04-08T07:09:11;2.40;;;2.30;;
17310;SDS011;8773;43.300;0.394;2023-04-08T07:11:39;2.63;;;2.43;;
17310;SDS011;8773;43.300;0.394;2023-04-08T07:14:07;2.47;;;2.30;;
17310;SDS011;8773;43.300;0.394;2023-04-08T07:16:37;2.30;;;2.10;;
17310;SDS011;8773;43.300;0.394;2023-04-08T07:19:05;2.17;;;2.08;;
17310;SDS011;8773;43.300;0.394;2023-04-08T07:21:33;2.55;;;2.13;;
17310;SDS011;8773;43.300;0.394;2023-04-08T07:24:01;2.90;;;2.60;;
17310;SDS011;8773;43.300;0.394;2023-04-08T07:26:31;2.25;;;2.03;;
17310;SDS011;8773;43.300;0.394;2023-04-08T07:28:59;2.80;;;2.33;;
17310;SDS011;8773;43.300;0.394;2023-04-08T07:31:27;2.70;;;2.50;;
17310;SDS011;8773;43.300;0.394;2023-04-08T07:33:55;2.33;;;2.13;;
17310;SDS011;8773;43.300;0.394;2023-04-08T07:36:23;2.45;;;2.28;;
17310;SDS011;8773;43.300;0.394;2023-04-08T07:38:51;2.80;;;2.17;;
17310;SDS011;8773;43.300;0.394;2023-04-08T07:41:19;2.20;;;2.10;;
17310;SDS011;8773;43.300;0.394;2023-04-08T07:43:49;2.08;;;1.98;;
17310;SDS011;8773;43.300;0.394;2023-04-08T07:46:17;2.53;;;2.33;;
17310;SDS011;8773;43.300;0.394;2023-04-08T07:48:45;2.25;;;2.10;;
17310;SDS011;8773;43.300;0.394;2023-04-08T07:51:14;2.50;;;2.40;;
17310;SDS011;8773;43.300;0.394;2023-04-08T07:53:42;2.55;;;2.38;;
17310;SDS011;8773;43.300;0.394;2023-04-08T07:56:10;2.75;;;2.20;;
17310;SDS011;8773;43.300;0.394;2023-04-08T07:58:38;2.38;;;2.28;;
17310;SDS011;8773;43.300;0.394;2023-04-08T08:01:14;2.90;;;2.70;;
17310;SDS011;8773;43.300;0.394;2023-04-08T08:03:44;2.70;;;2.58;;
17310;SDS011;8773;43.300;0.394;2023-04-08T08:06:13;3.22;;;2.63;;
17310;SDS011;8773;43.300;0.394;2023-04-08T08:08:41;2.95;;;2.60;;
17310;SDS011;8773;43.300;0.394;2023-04-08T08:11:09;2.83;;;2.58;;
17310;SDS011;8773;43.300;0.394;2023-04-08T08:13:37;2.75;;;2.55;;
17310;SDS011;8773;43.300;0.394;2023-04-08T08:16:05;3.17;;;2.58;;
17310;SDS011;8773;43.300;0.394;2023-04-08T08:18:38;2.23;;;2.13;;
17310;SDS011;8773;43.300;0.394;2023-04-08T08:21:06;4.10;;;2.57;;
17310;SDS011;8773;43.300;0.394;2023-04-08T08:23:35;2.67;;;2.57;;
17310;SDS011;8773;43.300;0.394;2023-04-08T08:26:05;3.10;;;2.80;;
17310;SDS011;8773;43.300;0.394;2023-04-08T08:28:35;4.20;;;2.63;;
17310;SDS011;8773;43.300;0.394;2023-04-08T08:31:03;2.80;;;2.60;;
17310;SDS011;8773;43.300;0.394;2023-04-08T08:33:32;4.13;;;2.70;;
17310;SDS011;8773;43.300;0.394;2023-04-08T08:36:01;4.37;;;2.50;;
17310;SDS011;8773;43.300;0.394;2023-04-08T08:38:30;2.77;;;2.57;;
17310;SDS011;8773;43.300;0.394;2023-04-08T08:40:58;2.50;;;2.30;;
17310;SDS011;8773;43.300;0.394;2023-04-08T08:43:29;2.73;;;2.40;;
17310;SDS011;8773;43.300;0.394;2023-04-08T08:45:58;2.93;;;2.73;;
17310;SDS011;8773;43.300;0.394;2023-04-08T08:48:27;2.73;;;2.63;;
17310;SDS011;8773;43.300;0.394;2023-04-08T08:50:55;2.90;;;2.70;;
17310;SDS011;8773;43.300;0.394;2023-04-08T08:53:28;2.97;;;2.67;;
17310;SDS011;8773;43.300;0.394;2023-04-08T08:56:00;3.00;;;2.70;;
17310;SDS011;8773;43.300;0.394;2023-04-08T08:58:31;4.90;;;2.93;;
17310;SDS011;8773;43.300;0.394;2023-04-08T09:01:00;2.90;;;2.70;;
17310;SDS011;8773;43.300;0.394;2023-04-08T09:03:28;3.33;;;2.43;;
17310;SDS011;8773;43.300;0.394;2023-04-08T09:05:56;2.63;;;2.53;;
17310;SDS011;8773;43.300;0.394;2023-04-08T09:08:26;3.17;;;2.50;;
17310;SDS011;8773;43.300;0.394;2023-04-08T09:11:10;2.40;;;2.30;;
17310;SDS011;8773;43.300;0.394;2023-04-08T09:13:40;2.43;;;2.27;;
17310;SDS011;8773;43.300;0.394;2023-04-08T09:16:08;2.63;;;2.50;;
17310;SDS011;8773;43.300;0.394;2023-04-08T09:18:37;3.07;;;2.77;;
17310;SDS011;8773;43.300;0.394;2023-04-08T09:21:06;2.13;;;2.03;;
17310;SDS011;8773;43.300;0.394;2023-04-08T09:23:39;2.50;;;2.30;;
17310;SDS011;8773;43.300;0.394;2023-04-08T09:26:09;2.47;;;2.27;;
17310;SDS011;8773;43.300;0.394;2023-04-08T09:28:39;2.77;;;2.20;;
17310;SDS011;8773;43.300;0.394;2023-04-08T09:31:16;2.90;;;2.17;;
17310;SDS011;8773;43.300;0.394;2023-04-08T09:33:46;2.10;;;2.00;;
17310;SDS011;8773;43.300;0.394;2023-04-08T09:36:14;2.10;;;1.87;;
17310;SDS011;8773;43.300;0.394;2023-04-08T09:38:44;2.00;;;1.90;;
17310;SDS011;8773;43.300;0.394;2023-04-08T09:41:13;2.47;;;1.80;;
17310;SDS011;8773;43.300;0.394;2023-04-08T09:43:43;1.90;;;1.80;;
17310;SDS011;8773;43.300;0.394;2023-04-08T09:46:16;1.80;;;1.70;;
17310;SDS011;8773;43.300;0.394;2023-04-08T09:48:48;1.70;;;1.60;;
17310;SDS011;8773;43.300;0.394;2023-04-08T09:51:18;1.70;;;1.50;;
17310;SDS011;8773;43.300;0.394;2023-04-08T09:53:49;1.93;;;1.80;;
17310;SDS011;8773;43.300;0.394;2023-04-08T09:56:23;1.60;;;1.50;;
17310;SDS011;8773;43.300;0.394;2023-04-08T09:58:58;2.25;;;1.55;;
17310;SDS011;8773;43.300;0.394;2023-04-08T10:01:28;1.50;;;1.40;;
17310;SDS011;8773;43.300;0.394;2023-04-08T10:04:02;1.50;;;1.40;;
17310;SDS011;8773;43.300;0.394;2023-04-08T10:06:32;1.63;;;1.53;;
17310;SDS011;8773;43.300;0.394;2023-04-08T10:09:02;1.40;;;1.30;;
17310;SDS011;8773;43.300;0.394;2023-04-08T10:11:30;1.50;;;1.40;;
17310;SDS011;8773;43.300;0.394;2023-04-08T10:13:58;1.13;;;1.00;;
17310;SDS011;8773;43.300;0.394;2023-04-08T10:16:27;1.63;;;1.00;;
17310;SDS011;8773;43.300;0.394;2023-04-08T10:18:55;0.93;;;0.90;;
17310;SDS011;8773;43.300;0.394;2023-04-08T10:21:30;1.08;;;1.08;;
17310;SDS011;8773;43.300;0.394;2023-04-08T10:23:59;1.77;;;1.15;;
17310;SDS011;8773;43.300;0.394;2023-04-08T10:26:38;1.05;;;1.05;;
17310;SDS011;8773;43.300;0.394;2023-04-08T10:32:27;1.40;;;1.30;;
17310;SDS011;8773;43.300;0.394;2023-04-08T10:34:55;1.58;;;1.20;;
17310;SDS011;8773;43.300;0.394;2023-04-08T10:37:23;1.40;;;1.30;;
17310;SDS011;8773;43.300;0.394;2023-04-08T10:39:52;1.25;;;1.25;;
17310;SDS011;8773;43.300;0.394;2023-04-08T10:42:27;1.30;;;1.23;;
17310;SDS011;8773;43.300;0.394;2023-04-08T10:44:58;1.25;;;1.15;;
17310;SDS011;8773;43.300;0.394;2023-04-08T10:47:28;1.20;;;1.20;;
17310;SDS011;8773;43.300;0.394;2023-04-08T10:49:56;1.30;;;1.20;;
17310;SDS011;8773;43.300;0.394;2023-04-08T10:52:24;1.85;;;1.85;;
17310;SDS011;8773;43.300;0.394;2023-04-08T10:54:55;1.02;;;1.02;;
17310;SDS011;8773;43.300;0.394;2023-04-08T10:57:23;1.48;;;1.38;;
17310;SDS011;8773;43.300;0.394;2023-04-08T10:59:53;1.15;;;1.02;;
17310;SDS011;8773;43.300;0.394;2023-04-08T11:02:21;1.75;;;1.30;;
17310;SDS011;8773;43.300;0.394;2023-04-08T11:04:58;1.38;;;1.00;;
17310;SDS011;8773;43.300;0.394;2023-04-08T11:07:26;1.60;;;1.02;;
17310;SDS011;8773;43.300;0.394;2023-04-08T11:09:54;1.13;;;1.10;;
17310;SDS011;8773;43.300;0.394;2023-04-08T11:12:22;1.10;;;1.00;;
17310;SDS011;8773;43.300;0.394;2023-04-08T11:14:50;1.10;;;1.10;;
17310;SDS011;8773;43.300;0.394;2023-04-08T11:17:20;1.15;;;1.00;;
17310;SDS011;8773;43.300;0.394;2023-04-08T11:19:49;2.25;;;1.00;;
17310;SDS011;8773;43.300;0.394;2023-04-08T11:22:19;1.17;;;0.90;;
17310;SDS011;8773;43.300;0.394;2023-04-08T11:24:47;1.17;;;1.15;;
17310;SDS011;8773;43.300;0.394;2023-04-08T11:27:16;1.08;;;1.08;;
17310;SDS011;8773;43.300;0.394;2023-04-08T11:29:44;0.95;;;0.95;;
17310;SDS011;8773;43.300;0.394;2023-04-08T11:32:12;1.00;;;1.00;;
17310;SDS011;8773;43.300;0.394;2023-04-08T11:34:42;1.08;;;1.08;;
17310;SDS011;8773;43.300;0.394;2023-04-08T11:37:10;0.90;;;0.90;;
17310;SDS011;8773;43.300;0.394;2023-04-08T11:39:39;0.80;;;0.80;;
17310;SDS011;8773;43.300;0.394;2023-04-08T11:42:14;1.13;;;1.00;;
17310;SDS011;8773;43.300;0.394;2023-04-08T11:44:53;1.33;;;1.00;;
17310;SDS011;8773;43.300;0.394;2023-04-08T11:47:21;1.00;;;1.00;;
17310;SDS011;8773;43.300;0.394;2023-04-08T11:49:58;1.00;;;1.00;;
17310;SDS011;8773;43.300;0.394;2023-04-08T11:52:41;1.58;;;0.90;;
17310;SDS011;8773;43.300;0.394;2023-04-08T11:55:10;0.90;;;0.90;;
17310;SDS011;8773;43.300;0.394;2023-04-08T11:57:39;0.90;;;0.90;;
17310;SDS011;8773;43.300;0.394;2023-04-08T12:00:07;1.00;;;0.90;;
17310;SDS011;8773;43.300;0.394;2023-04-08T12:02:35;0.90;;;0.90;;
17310;SDS011;8773;43.300;0.394;2023-04-08T12:05:05;0.90;;;0.90;;
17310;SDS011;8773;43.300;0.394;2023-04-08T12:07:34;0.90;;;0.90;;
17310;SDS011;8773;43.300;0.394;2023-04-08T12:10:02;0.80;;;0.80;;
17310;SDS011;8773;43.300;0.394;2023-04-08T12:12:31;0.80;;;0.80;;
17310;SDS011;8773;43.300;0.394;2023-04-08T12:14:59;1.30;;;1.17;;
17310;SDS011;8773;43.300;0.394;2023-04-08T12:17:27;1.10;;;1.10;;
17310;SDS011;8773;43.300;0.394;2023-04-08T12:19:54;1.08;;;1.08;;
17310;SDS011;8773;43.300;0.394;2023-04-08T12:22:24;2.00;;;1.20;;
17310;SDS011;8773;43.300;0.394;2023-04-08T12:24:52;1.20;;;1.20;;
17310;SDS011;8773;43.300;0.394;2023-04-08T12:27:20;1.10;;;1.10;;
17310;SDS011;8773;43.300;0.394;2023-04-08T12:29:48;1.67;;;1.10;;
17310;SDS011;8773;43.300;0.394;2023-04-08T12:32:17;1.52;;;1.05;;
17310;SDS011;8773;43.300;0.394;2023-04-08T12:34:45;1.55;;;1.27;;
17310;SDS011;8773;43.300;0.394;2023-04-08T12:37:13;2.08;;;1.00;;
17310;SDS011;8773;43.300;0.394;2023-04-08T12:39:44;1.20;;;1.10;;
17310;SDS011;8773;43.300;0.394;2023-04-08T12:42:13;0.98;;;0.90;;
17310;SDS011;8773;43.300;0.394;2023-04-08T12:44:41;1.05;;;1.05;;
17310;SDS011;8773;43.300;0.394;2023-04-08T12:47:09;0.98;;;0.98;;
17310;SDS011;8773;43.300;0.394;2023-04-08T12:49:37;1.10;;;1.10;;
17310;SDS011;8773;43.300;0.394;2023-04-08T12:52:08;1.42;;;1.33;;
17310;SDS011;8773;43.300;0.394;2023-04-08T12:54:36;1.10;;;1.10;;
17310;SDS011;8773;43.300;0.394;2023-04-08T12:57:05;1.00;;;1.00;;
17310;SDS011;8773;43.300;0.394;2023-04-08T12:59:34;1.08;;;1.08;;
17310;SDS011;8773;43.300;0.394;2023-04-08T13:02:03;1.25;;;1.25;;
17310;SDS011;8773;43.300;0.394;2023-04-08T13:04:31;1.00;;;1.00;;
17310;SDS011;8773;43.300;0.394;2023-04-08T13:06:59;0.88;;;0.88;;
17310;SDS011;8773;43.300;0.394;2023-04-08T13:09:27;0.70;;;0.70;;
17310;SDS011;8773;43.300;0.394;2023-04-08T13:11:56;1.13;;;0.95;;
17310;SDS011;8773;43.300;0.394;2023-04-08T13:14:26;1.08;;;0.88;;
17310;SDS011;8773;43.300;0.394;2023-04-08T13:16:54;1.17;;;0.90;;
17310;SDS011;8773;43.300;0.394;2023-04-08T13:19:22;1.17;;;1.10;;
17310;SDS011;8773;43.300;0.394;2023-04-08T13:21:50;2.05;;;1.10;;
17310;SDS011;8773;43.300;0.394;2023-04-08T13:24:18;1.48;;;1.15;;
17310;SDS011;8773;43.300;0.394;2023-04-08T13:26:46;0.85;;;0.85;;
17310;SDS011;8773;43.300;0.394;2023-04-08T13:29:14;1.25;;;1.15;;
17310;SDS011;8773;43.300;0.394;2023-04-08T13:31:43;0.90;;;0.90;;
17310;SDS011;8773;43.300;0.394;2023-04-08T13:34:11;2.28;;;1.02;;
17310;SDS011;8773;43.300;0.394;2023-04-08T13:36:39;1.00;;;1.00;;
17310;SDS011;8773;43.300;0.394;2023-04-08T13:39:07;1.00;;;1.00;;
17310;SDS011;8773;43.300;0.394;2023-04-08T13:41:35;0.70;;;0.70;;
17310;SDS011;8773;43.300;0.394;2023-04-08T13:44:04;1.02;;;1.02;;
17310;SDS011;8773;43.300;0.394;2023-04-08T13:46:35;0.90;;;0.90;;
17310;SDS011;8773;43.300;0.394;2023-04-08T13:50:33;0.80;;;0.80;;
17310;SDS011;8773;43.300;0.394;2023-04-08T13:53:01;1.33;;;0.95;;
17310;SDS011;8773;43.300;0.394;2023-04-08T13:55:30;2.70;;;1.20;;
17310;SDS011;8773;43.300;0.394;2023-04-08T13:57:58;0.90;;;0.90;;
17310;SDS011;8773;43.300;0.394;2023-04-08T14:00:28;4.32;;;1.92;;
17310;SDS011;8773;43.300;0.394;2023-04-08T14:02:57;22.40;;;17.08;;
17310;SDS011;8773;43.300;0.394;2023-04-08T14:05:25;1.08;;;1.05;;
17310;SDS011;8773;43.300;0.394;2023-04-08T14:07:54;1.25;;;1.13;;
17310;SDS011;8773;43.300;0.394;2023-04-08T14:10:22;0.98;;;0.98;;
17310;SDS011;8773;43.300;0.394;2023-04-08T14:12:50;0.73;;;0.73;;
17310;SDS011;8773;43.300;0.394;2023-04-08T14:15:18;0.73;;;0.73;;
17310;SDS011;8773;43.300;0.394;2023-04-08T14:17:46;0.80;;;0.80;;
17310;SDS011;8773;43.300;0.394;2023-04-08T14:20:15;0.80;;;0.80;;
17310;SDS011;8773;43.300;0.394;2023-04-08T14:22:43;1.02;;;0.88;;
17310;SDS011;8773;43.300;0.394;2023-04-08T14:25:12;0.93;;;0.90;;
17310;SDS011;8773;43.300;0.394;2023-04-08T14:27:40;1.00;;;0.88;;
17310;SDS011;8773;43.300;0.394;2023-04-08T14:30:23;1.10;;;0.80;;
17310;SDS011;8773;43.300;0.394;2023-04-08T14:32:55;0.95;;;0.80;;
17310;SDS011;8773;43.300;0.394;2023-04-08T14:35:24;1.05;;;0.70;;
17310;SDS011;8773;43.300;0.394;2023-04-08T14:37:52;0.80;;;0.80;;
17310;SDS011;8773;43.300;0.394;2023-04-08T14:40:22;0.80;;;0.80;;
17310;SDS011;8773;43.300;0.394;2023-04-08T14:42:50;0.93;;;0.93;;
17310;SDS011;8773;43.300;0.394;2023-04-08T14:45:18;1.00;;;1.00;;
17310;SDS011;8773;43.300;0.394;2023-04-08T14:47:47;0.85;;;0.85;;
17310;SDS011;8773;43.300;0.394;2023-04-08T14:50:15;1.25;;;0.82;;
17310;SDS011;8773;43.300;0.394;2023-04-08T14:52:43;0.98;;;0.85;;
17310;SDS011;8773;43.300;0.394;2023-04-08T14:55:13;0.90;;;0.90;;
17310;SDS011;8773;43.300;0.394;2023-04-08T14:57:43;0.77;;;0.77;;
17310;SDS011;8773;43.300;0.394;2023-04-08T15:00:12;0.80;;;0.80;;
17310;SDS011;8773;43.300;0.394;2023-04-08T15:02:40;2.22;;;1.00;;
17310;SDS011;8773;43.300;0.394;2023-04-08T15:05:08;0.65;;;0.65;;
17310;SDS011;8773;43.300;0.394;2023-04-08T15:07:39;1.25;;;1.00;;
17310;SDS011;8773;43.300;0.394;2023-04-08T15:10:08;1.20;;;0.80;;
17310;SDS011;8773;43.300;0.394;2023-04-08T15:12:36;0.85;;;0.85;;
17310;SDS011;8773;43.300;0.394;2023-04-08T15:15:07;0.90;;;0.90;;
17310;SDS011;8773;43.300;0.394;2023-04-08T15:17:36;0.82;;;0.82;;